Time;durP1;ratioP1;P1;durP2;ratioP2;P2;SDS_P1;SDS_P2;PMS_P1;PMS_P2;Temp;Humidity;BMP_temperature;BMP_pressure;BME280_temperature;BME280_humidity;BME280_pressure;Samples;Min_cycle;Max_cycle;Signal;HPM_P1;HPM_P2
2023/12/31 00:03:09;;;;;;;2.15;0.60;;;8.60;99.90;;;;;;7371581;32;20199;-56
2023/12/31 00:07:11;;;;;;;2.30;0.60;;;8.60;99.90;;;;;;7366915;32;20218;-57
2023/12/31 00:11:14;;;;;;;2.00;0.75;;;8.60;99.90;;;;;;7368108;32;20103;-56
2023/12/31 00:15:15;;;;;;;1.52;0.73;;;8.60;99.90;;;;;;7365821;32;20209;-57
2023/12/31 00:19:17;;;;;;;1.37;0.73;;;8.60;99.90;;;;;;7357654;32;20161;-56
2023/12/31 00:23:19;;;;;;;3.12;0.80;;;8.50;99.90;;;;;;7369046;32;20658;-56
2023/12/31 00:27:22;;;;;;;2.08;1.02;;;8.60;99.90;;;;;;7354205;32;20240;-55
2023/12/31 00:31:24;;;;;;;3.92;0.75;;;8.60;99.90;;;;;;7365018;32;20114;-56
2023/12/31 00:35:26;;;;;;;1.62;0.80;;;8.60;99.90;;;;;;7359759;32;20108;-56
2023/12/31 00:39:27;;;;;;;1.83;0.90;;;8.50;99.90;;;;;;7363314;32;20099;-56
2023/12/31 00:43:29;;;;;;;1.20;0.77;;;8.50;99.90;;;;;;7362672;32;20107;-56
2023/12/31 00:47:31;;;;;;;2.30;1.00;;;8.50;99.90;;;;;;7355964;32;20233;-56
2023/12/31 00:51:32;;;;;;;2.65;0.88;;;8.50;99.90;;;;;;7365050;32;20472;-56
2023/12/31 00:55:38;;;;;;;2.65;1.20;;;8.40;99.90;;;;;;7368340;32;20501;-56
2023/12/31 00:59:40;;;;;;;2.37;1.08;;;8.40;99.90;;;;;;7358599;32;20154;-56
2023/12/31 01:03:41;;;;;;;4.30;1.08;;;8.50;99.90;;;;;;7371790;32;20177;-57
2023/12/31 01:07:43;;;;;;;3.97;1.42;;;8.50;99.90;;;;;;7371360;32;20576;-57
2023/12/31 01:11:45;;;;;;;2.05;1.30;;;8.50;99.90;;;;;;7363912;32;20201;-57
2023/12/31 01:15:47;;;;;;;1.65;1.20;;;8.60;99.90;;;;;;7368394;32;20107;-57
2023/12/31 01:19:49;;;;;;;3.45;1.40;;;8.50;99.90;;;;;;7368157;32;20186;-57
2023/12/31 01:23:51;;;;;;;3.58;1.15;;;8.60;99.90;;;;;;7361878;32;20219;-57
2023/12/31 01:27:55;;;;;;;2.72;1.20;;;8.60;99.90;;;;;;7361405;32;20261;-58
2023/12/31 01:31:59;;;;;;;2.58;1.20;;;8.70;99.90;;;;;;7368086;32;20159;-56
2023/12/31 01:36:01;;;;;;;2.45;1.17;;;8.80;99.90;;;;;;7354990;32;20489;-55
2023/12/31 01:40:03;;;;;;;2.78;1.30;;;8.80;99.90;;;;;;7343996;32;20446;-57
2023/12/31 01:44:06;;;;;;;3.67;1.10;;;8.80;99.90;;;;;;7348567;32;20103;-55
2023/12/31 01:48:08;;;;;;;2.47;1.52;;;8.80;99.90;;;;;;7358677;32;20206;-58
2023/12/31 01:52:11;;;;;;;4.60;1.67;;;8.80;99.90;;;;;;7368516;32;20680;-57
2023/12/31 01:56:13;;;;;;;2.58;1.25;;;8.80;99.90;;;;;;7365120;32;20411;-57
2023/12/31 02:00:16;;;;;;;1.98;1.20;;;8.80;99.90;;;;;;7363087;32;20486;-56
2023/12/31 02:04:19;;;;;;;1.67;1.17;;;8.70;99.90;;;;;;7360347;32;20306;-56
2023/12/31 02:08:21;;;;;;;2.97;1.50;;;8.70;99.90;;;;;;7368536;32;20126;-57
2023/12/31 02:12:23;;;;;;;1.65;1.30;;;8.60;99.90;;;;;;7370080;32;20558;-56
2023/12/31 02:16:25;;;;;;;4.97;1.20;;;8.60;99.90;;;;;;7356915;32;20163;-56
2023/12/31 02:20:29;;;;;;;2.62;1.17;;;8.60;99.90;;;;;;7358716;32;20103;-57
2023/12/31 02:24:34;;;;;;;2.33;1.60;;;8.60;99.90;;;;;;7362196;32;20485;-56
2023/12/31 02:28:37;;;;;;;1.75;1.50;;;8.50;99.90;;;;;;7364806;32;20530;-57
2023/12/31 02:32:38;;;;;;;2.95;1.45;;;8.50;99.90;;;;;;7365995;32;20131;-56
2023/12/31 02:36:40;;;;;;;2.35;1.37;;;8.40;99.90;;;;;;7358762;32;20110;-58
2023/12/31 02:40:42;;;;;;;3.05;1.50;;;8.40;99.90;;;;;;7362609;32;20648;-56
2023/12/31 02:44:44;;;;;;;1.87;1.33;;;8.40;99.90;;;;;;7364008;32;20591;-56
2023/12/31 02:48:45;;;;;;;2.05;1.50;;;8.30;99.90;;;;;;7367763;32;20599;-56
2023/12/31 02:52:48;;;;;;;3.83;1.30;;;8.30;99.90;;;;;;7361343;32;20383;-57
2023/12/31 02:56:50;;;;;;;2.20;1.33;;;8.30;99.90;;;;;;7361137;32;20268;-57
2023/12/31 03:00:52;;;;;;;4.40;1.55;;;8.30;99.90;;;;;;7366967;32;20118;-57
2023/12/31 03:04:53;;;;;;;2.90;1.30;;;8.30;99.90;;;;;;7363204;32;20130;-56
2023/12/31 03:08:58;;;;;;;3.12;1.37;;;8.40;99.90;;;;;;7353580;32;20547;-56
2023/12/31 03:13:00;;;;;;;2.50;1.80;;;8.40;99.90;;;;;;7360984;32;20166;-56
2023/12/31 03:17:03;;;;;;;1.80;1.30;;;8.40;99.90;;;;;;7358996;32;20202;-56
2023/12/31 03:21:05;;;;;;;2.22;1.50;;;8.40;99.90;;;;;;7361180;32;20126;-56
2023/12/31 03:25:06;;;;;;;4.37;1.58;;;8.40;99.90;;;;;;7351128;32;20103;-56
2023/12/31 03:29:08;;;;;;;3.20;1.30;;;8.50;99.90;;;;;;7362381;32;20125;-58
2023/12/31 03:33:10;;;;;;;2.37;1.37;;;8.50;99.90;;;;;;7365038;32;20100;-56
2023/12/31 03:37:12;;;;;;;3.08;1.48;;;8.60;99.90;;;;;;7370107;32;20208;-57
2023/12/31 03:41:14;;;;;;;2.37;1.33;;;8.60;99.90;;;;;;7366172;32;20148;-59
2023/12/31 03:45:15;;;;;;;4.32;1.42;;;8.70;99.90;;;;;;7368322;32;20539;-57
2023/12/31 03:49:17;;;;;;;2.37;1.50;;;8.70;99.90;;;;;;7364654;32;20213;-55
2023/12/31 03:53:19;;;;;;;1.73;1.20;;;8.70;99.90;;;;;;7371021;32;20111;-56
2023/12/31 03:57:21;;;;;;;1.92;1.52;;;8.70;99.90;;;;;;7370236;32;20616;-56
2023/12/31 04:01:22;;;;;;;3.40;1.60;;;8.70;99.90;;;;;;7366178;32;20977;-56
2023/12/31 04:05:24;;;;;;;3.28;1.67;;;8.80;99.90;;;;;;7362579;32;20159;-56
2023/12/31 04:09:26;;;;;;;3.10;1.50;;;8.70;99.90;;;;;;7363674;32;20155;-56
2023/12/31 04:13:28;;;;;;;2.40;1.50;;;8.70;99.90;;;;;;7366967;32;20123;-56
2023/12/31 04:17:30;;;;;;;2.80;1.67;;;8.70;99.90;;;;;;7361481;32;20666;-56
2023/12/31 04:21:32;;;;;;;2.60;1.30;;;8.80;99.90;;;;;;7358591;32;20195;-56
2023/12/31 04:25:34;;;;;;;4.90;1.80;;;8.70;99.90;;;;;;7367812;32;20450;-57
2023/12/31 04:29:35;;;;;;;3.37;1.75;;;8.70;99.90;;;;;;7361909;32;20103;-56
2023/12/31 04:33:37;;;;;;;4.60;1.58;;;8.70;99.90;;;;;;7365289;32;20516;-56
2023/12/31 04:37:39;;;;;;;2.08;1.10;;;8.70;99.90;;;;;;7363894;32;20819;-57
2023/12/31 04:41:41;;;;;;;1.73;1.42;;;8.70;99.90;;;;;;7368921;32;20610;-56
2023/12/31 04:45:42;;;;;;;2.53;1.30;;;8.70;99.90;;;;;;7367092;32;20689;-56
2023/12/31 04:49:44;;;;;;;5.43;1.50;;;8.70;99.90;;;;;;7361880;32;20158;-56
2023/12/31 04:53:46;;;;;;;4.70;1.40;;;8.70;99.90;;;;;;7366878;32;20594;-56
2023/12/31 04:57:49;;;;;;;3.20;1.50;;;8.70;99.90;;;;;;7362948;32;20103;-55
2023/12/31 05:01:51;;;;;;;2.17;1.10;;;8.70;99.90;;;;;;7362230;32;20747;-57
2023/12/31 05:05:53;;;;;;;2.22;1.37;;;8.70;99.90;;;;;;7368287;32;20103;-55
2023/12/31 05:09:55;;;;;;;3.60;1.23;;;8.80;99.90;;;;;;7370598;32;20194;-55
2023/12/31 05:13:56;;;;;;;4.18;1.17;;;8.80;99.90;;;;;;7366061;32;20128;-56
2023/12/31 05:17:58;;;;;;;3.53;1.27;;;8.70;99.90;;;;;;7365792;32;20250;-57
2023/12/31 05:22:00;;;;;;;3.12;1.12;;;8.70;99.90;;;;;;7361030;32;20130;-54
2023/12/31 05:26:02;;;;;;;3.50;1.40;;;8.80;99.90;;;;;;7364601;32;20095;-55
2023/12/31 05:30:05;;;;;;;2.65;1.02;;;8.90;99.90;;;;;;7366927;32;20226;-54
2023/12/31 05:34:07;;;;;;;4.12;1.08;;;8.80;99.90;;;;;;7361881;32;20590;-55
2023/12/31 05:38:09;;;;;;;3.92;1.10;;;8.90;99.90;;;;;;7365686;32;20407;-55
2023/12/31 05:42:11;;;;;;;2.53;1.70;;;8.90;99.90;;;;;;7365941;32;20291;-55
2023/12/31 05:46:13;;;;;;;2.53;1.10;;;8.90;99.90;;;;;;7366581;32;20202;-55
2023/12/31 05:50:15;;;;;;;3.83;1.30;;;8.90;99.90;;;;;;7369067;32;20206;-54
2023/12/31 05:54:17;;;;;;;2.72;1.10;;;9.00;99.90;;;;;;7362776;32;20125;-55
2023/12/31 05:58:18;;;;;;;2.28;1.17;;;9.00;99.90;;;;;;7360628;32;20115;-56
2023/12/31 06:02:20;;;;;;;2.40;1.23;;;9.00;99.90;;;;;;7363975;32;20237;-55
2023/12/31 06:06:22;;;;;;;2.17;1.33;;;9.00;99.90;;;;;;7367551;32;20147;-55
2023/12/31 06:10:24;;;;;;;2.95;1.27;;;9.00;99.90;;;;;;7362372;32;20761;-56
2023/12/31 06:14:26;;;;;;;4.15;1.42;;;9.00;99.90;;;;;;7359454;32;20689;-56
2023/12/31 06:18:27;;;;;;;1.80;1.05;;;9.00;99.90;;;;;;7356636;32;20699;-56
2023/12/31 06:22:29;;;;;;;1.85;1.10;;;9.00;99.90;;;;;;7370892;32;20099;-56
2023/12/31 06:26:31;;;;;;;2.40;1.30;;;9.00;99.90;;;;;;7360401;32;20107;-56
2023/12/31 06:30:33;;;;;;;1.73;1.15;;;9.00;99.90;;;;;;7353828;32;20198;-57
2023/12/31 06:34:34;;;;;;;1.90;1.23;;;9.10;99.90;;;;;;7353566;32;20213;-57
2023/12/31 06:38:36;;;;;;;2.72;1.05;;;9.10;99.90;;;;;;7348785;32;20308;-56
2023/12/31 06:42:38;;;;;;;3.20;1.00;;;9.10;99.90;;;;;;7358051;32;21118;-55
2023/12/31 06:46:40;;;;;;;1.98;1.10;;;9.10;99.90;;;;;;7353978;32;20187;-57
2023/12/31 06:50:42;;;;;;;1.42;1.00;;;9.10;99.90;;;;;;7365176;32;20119;-55
2023/12/31 06:54:44;;;;;;;2.08;1.00;;;9.10;99.90;;;;;;7359043;32;20197;-56
2023/12/31 06:58:45;;;;;;;1.50;0.93;;;9.10;99.90;;;;;;7368195;32;20250;-55
2023/12/31 07:02:47;;;;;;;1.50;1.10;;;9.20;99.90;;;;;;7360279;32;20100;-55
2023/12/31 07:06:49;;;;;;;3.58;1.20;;;9.20;99.90;;;;;;7355212;32;20131;-54
2023/12/31 07:10:52;;;;;;;1.75;1.10;;;9.20;99.90;;;;;;7364751;32;20228;-55
2023/12/31 07:14:54;;;;;;;1.20;0.90;;;9.30;99.90;;;;;;7375255;32;20609;-55
2023/12/31 07:18:56;;;;;;;3.37;1.30;;;9.20;99.90;;;;;;7370566;32;20115;-55
2023/12/31 07:22:58;;;;;;;1.83;1.27;;;9.20;99.90;;;;;;7371260;32;20103;-56
2023/12/31 07:26:59;;;;;;;2.47;1.15;;;9.30;99.90;;;;;;7369539;32;20123;-56
2023/12/31 07:31:02;;;;;;;2.00;1.12;;;9.20;99.90;;;;;;7372559;32;20168;-56
2023/12/31 07:35:04;;;;;;;1.12;0.80;;;9.30;99.90;;;;;;7364561;32;20243;-55
2023/12/31 07:39:06;;;;;;;1.80;1.10;;;9.30;99.90;;;;;;7370019;32;20125;-56
2023/12/31 07:43:08;;;;;;;3.08;1.00;;;9.20;99.90;;;;;;7363834;32;20100;-59
2023/12/31 07:47:10;;;;;;;2.25;1.10;;;9.20;99.90;;;;;;7372476;32;20134;-57
2023/12/31 07:51:12;;;;;;;2.22;1.25;;;9.10;99.90;;;;;;7372964;32;20226;-57
2023/12/31 07:55:13;;;;;;;1.50;1.00;;;9.10;99.90;;;;;;7366764;32;20175;-58
2023/12/31 07:59:15;;;;;;;2.00;1.20;;;9.10;99.90;;;;;;7369625;32;20194;-57
2023/12/31 08:03:18;;;;;;;3.12;1.20;;;9.20;99.90;;;;;;7364026;32;20117;-56
2023/12/31 08:07:19;;;;;;;1.77;1.12;;;9.20;99.90;;;;;;7369188;32;20100;-57
2023/12/31 08:11:21;;;;;;;2.33;1.20;;;9.20;99.90;;;;;;7372782;32;20130;-57
2023/12/31 08:15:23;;;;;;;2.70;1.10;;;9.30;99.90;;;;;;7367424;32;20233;-56
2023/12/31 08:19:25;;;;;;;4.25;1.48;;;9.40;99.90;;;;;;7370251;32;20142;-55
2023/12/31 08:23:27;;;;;;;2.40;1.08;;;9.40;99.90;;;;;;7370938;32;20532;-56
2023/12/31 08:27:28;;;;;;;2.40;1.30;;;9.40;99.90;;;;;;7366471;32;20213;-57
2023/12/31 08:31:30;;;;;;;1.87;1.15;;;9.40;99.90;;;;;;7365835;32;20234;-57
2023/12/31 08:35:32;;;;;;;1.55;0.93;;;9.40;99.90;;;;;;7366679;32;20107;-57
2023/12/31 08:39:37;;;;;;;1.73;1.20;;;9.50;99.90;;;;;;7367930;32;20254;-55
2023/12/31 08:43:39;;;;;;;2.80;1.33;;;9.40;99.90;;;;;;7370343;32;20103;-58
2023/12/31 08:47:41;;;;;;;1.50;0.93;;;9.50;99.90;;;;;;7362947;32;20605;-56
2023/12/31 08:51:42;;;;;;;1.40;1.02;;;9.50;99.90;;;;;;7361354;32;20218;-56
2023/12/31 08:55:44;;;;;;;1.95;1.20;;;9.50;99.90;;;;;;7363832;32;20233;-54
2023/12/31 08:59:46;;;;;;;1.98;1.25;;;9.70;99.90;;;;;;7362882;32;20197;-53
2023/12/31 09:03:48;;;;;;;2.25;1.12;;;9.90;99.90;;;;;;7359952;32;20227;-56
2023/12/31 09:07:50;;;;;;;2.50;1.40;;;9.90;99.90;;;;;;7366016;32;20111;-56
2023/12/31 09:11:52;;;;;;;2.47;1.50;;;9.90;99.90;;;;;;7367533;32;20241;-56
2023/12/31 09:15:55;;;;;;;1.45;1.00;;;9.80;99.90;;;;;;7367356;32;20214;-56
2023/12/31 09:19:57;;;;;;;4.12;1.50;;;9.80;99.90;;;;;;7373064;32;20122;-55
2023/12/31 09:23:59;;;;;;;3.28;1.30;;;9.80;99.90;;;;;;7356638;32;20270;-58
2023/12/31 09:28:01;;;;;;;1.60;1.27;;;9.80;99.90;;;;;;7360345;32;20838;-58
2023/12/31 09:32:03;;;;;;;2.37;1.40;;;9.90;99.90;;;;;;7369352;32;20563;-57
2023/12/31 09:36:05;;;;;;;2.30;1.50;;;10.00;99.90;;;;;;7369217;32;20198;-57
2023/12/31 09:40:08;;;;;;;3.42;1.50;;;10.10;99.90;;;;;;7364956;32;20098;-58
2023/12/31 09:44:15;;;;;;;1.90;1.20;;;10.10;99.90;;;;;;7362658;32;20134;-58
2023/12/31 09:48:17;;;;;;;5.53;1.60;;;10.20;99.90;;;;;;7361968;32;20111;-57
2023/12/31 09:52:19;;;;;;;2.42;1.52;;;10.20;99.90;;;;;;7363468;32;20453;-57
2023/12/31 09:56:22;;;;;;;3.17;1.65;;;10.30;99.90;;;;;;7354510;32;20129;-56
2023/12/31 10:00:24;;;;;;;2.60;1.60;;;10.30;99.90;;;;;;7358348;32;20308;-57
2023/12/31 10:04:27;;;;;;;3.90;1.75;;;10.40;99.90;;;;;;7358720;32;20760;-58
2023/12/31 10:08:29;;;;;;;3.47;1.80;;;10.30;99.90;;;;;;7363446;32;20336;-58
2023/12/31 10:12:32;;;;;;;2.47;1.70;;;10.30;99.90;;;;;;7364685;32;20747;-56
2023/12/31 10:16:36;;;;;;;3.05;1.70;;;10.30;99.90;;;;;;7354978;32;20319;-56
2023/12/31 10:20:38;;;;;;;2.58;1.83;;;10.30;99.90;;;;;;7363702;32;20152;-58
2023/12/31 10:24:43;;;;;;;3.20;1.50;;;10.30;99.90;;;;;;7354529;32;20297;-57
2023/12/31 10:28:45;;;;;;;2.65;1.62;;;10.30;99.90;;;;;;7359601;32;20305;-56
2023/12/31 10:33:10;;;;;;;2.53;1.75;;;10.30;99.90;;;;;;7363059;32;20212;-56
2023/12/31 10:37:12;;;;;;;3.37;1.50;;;10.20;99.90;;;;;;7359910;32;20135;-56
2023/12/31 10:41:25;;;;;;;3.72;1.30;;;10.20;99.90;;;;;;7358874;32;21456;-56
2023/12/31 10:45:30;;;;;;;1.87;0.98;;;10.20;99.90;;;;;;7355188;32;20229;-56
2023/12/31 10:49:33;;;;;;;2.22;0.55;;;10.30;99.90;;;;;;7353398;32;20548;-56
2023/12/31 10:53:39;;;;;;;2.80;0.70;;;10.40;99.90;;;;;;7368345;32;20251;-57
2023/12/31 10:57:44;;;;;;;1.30;0.68;;;10.40;99.90;;;;;;7364232;32;20107;-57
2023/12/31 11:01:46;;;;;;;0.70;0.40;;;10.60;99.90;;;;;;7362570;32;20270;-57
2023/12/31 11:05:49;;;;;;;0.95;0.40;;;10.60;99.90;;;;;;7362297;32;20169;-57
2023/12/31 11:09:51;;;;;;;2.22;0.82;;;10.60;99.90;;;;;;7353627;32;20150;-57
2023/12/31 11:13:55;;;;;;;1.12;0.40;;;10.50;99.90;;;;;;7364757;32;20175;-57
2023/12/31 11:18:10;;;;;;;2.95;0.80;;;10.50;99.90;;;;;;7367306;32;20473;-57
2023/12/31 11:22:51;;;;;;;3.15;0.50;;;10.50;99.90;;;;;;7372421;32;20419;-57
2023/12/31 11:27:16;;;;;;;1.77;0.70;;;10.50;99.90;;;;;;7359198;32;20156;-56
2023/12/31 11:31:20;;;;;;;1.40;0.50;;;10.40;99.90;;;;;;7358718;32;20274;-56
2023/12/31 11:35:41;;;;;;;1.23;0.30;;;10.40;99.90;;;;;;7368058;32;20122;-56
2023/12/31 11:39:47;;;;;;;1.77;0.40;;;10.40;99.90;;;;;;7364286;32;20517;-57
2023/12/31 11:43:50;;;;;;;1.48;0.47;;;10.30;99.90;;;;;;7358100;32;20179;-57
2023/12/31 11:47:52;;;;;;;2.55;0.50;;;10.20;99.90;;;;;;7355042;32;20163;-56
2023/12/31 11:51:56;;;;;;;0.60;0.30;;;10.20;99.90;;;;;;7363557;32;20114;-55
2023/12/31 11:55:59;;;;;;;0.98;0.30;;;10.10;99.90;;;;;;7358001;32;20231;-57
2023/12/31 12:00:06;;;;;;;2.37;0.30;;;10.10;99.90;;;;;;7358005;32;20243;-57
2023/12/31 12:04:08;;;;;;;1.12;0.40;;;10.10;99.90;;;;;;7359217;32;20134;-57
2023/12/31 12:08:11;;;;;;;0.43;0.15;;;10.00;99.90;;;;;;7366992;32;20175;-57
2023/12/31 12:12:12;;;;;;;0.30;0.20;;;9.90;99.90;;;;;;7369070;32;20171;-56
2023/12/31 12:16:14;;;;;;;0.28;0.20;;;9.90;99.90;;;;;;7365995;32;20103;-57
2023/12/31 12:20:16;;;;;;;0.73;0.20;;;9.90;99.90;;;;;;7367844;32;20142;-57
2023/12/31 12:24:18;;;;;;;3.70;0.57;;;9.80;99.90;;;;;;7369452;32;20740;-56
2023/12/31 12:28:20;;;;;;;0.32;0.15;;;9.60;99.90;;;;;;7369158;32;20551;-57
2023/12/31 12:32:22;;;;;;;0.57;0.20;;;9.50;99.90;;;;;;7367550;32;20119;-56
2023/12/31 12:36:23;;;;;;;2.15;0.22;;;9.50;99.90;;;;;;7367757;32;20123;-57
2023/12/31 12:40:25;;;;;;;1.42;0.32;;;9.70;99.90;;;;;;7355421;32;20545;-57
2023/12/31 12:44:27;;;;;;;1.15;0.40;;;9.70;99.90;;;;;;7364958;32;20341;-57
2023/12/31 12:48:30;;;;;;;1.25;0.17;;;9.70;99.90;;;;;;7365431;32;20453;-58
2023/12/31 12:52:31;;;;;;;2.53;0.30;;;9.70;99.90;;;;;;7360067;32;20178;-56
2023/12/31 12:56:33;;;;;;;1.62;0.40;;;9.80;99.90;;;;;;7370674;32;20123;-57
2023/12/31 13:00:35;;;;;;;2.30;0.80;;;9.50;99.90;;;;;;7369560;32;20166;-57
2023/12/31 13:04:37;;;;;;;1.70;0.77;;;9.00;99.90;;;;;;7362417;32;20308;-57
2023/12/31 13:08:39;;;;;;;4.43;0.90;;;8.80;99.90;;;;;;7354971;32;20735;-57
2023/12/31 13:12:40;;;;;;;6.28;1.10;;;8.60;99.90;;;;;;7359687;32;20764;-57
2023/12/31 13:16:42;;;;;;;7.75;0.80;;;8.40;99.90;;;;;;7362964;32;20123;-58
2023/12/31 13:20:51;;;;;;;5.35;0.50;;;8.40;99.90;;;;;;7360526;32;20153;-58
2023/12/31 13:24:53;;;;;;;2.28;0.62;;;8.40;99.90;;;;;;7367659;32;20581;-57
2023/12/31 13:28:54;;;;;;;3.40;0.60;;;8.30;99.90;;;;;;7365050;32;20843;-58
2023/12/31 13:33:03;;;;;;;0.93;0.30;;;8.20;99.90;;;;;;7372145;32;20652;-58
2023/12/31 13:37:05;;;;;;;0.98;0.35;;;8.10;99.90;;;;;;7356028;32;20246;-58
2023/12/31 13:41:07;;;;;;;1.77;0.30;;;7.90;99.90;;;;;;7370185;32;20210;-58
2023/12/31 13:45:10;;;;;;;2.45;0.30;;;7.90;99.90;;;;;;7366311;32;20103;-59
2023/12/31 13:49:12;;;;;;;1.92;0.30;;;7.90;99.90;;;;;;7356528;32;20111;-57
2023/12/31 13:53:14;;;;;;;2.50;0.32;;;7.90;99.90;;;;;;7357905;32;20110;-57
2023/12/31 13:57:17;;;;;;;1.20;0.30;;;8.00;99.90;;;;;;7356768;32;20099;-58
2023/12/31 14:01:19;;;;;;;3.47;0.45;;;8.00;99.90;;;;;;7360774;32;20697;-60
2023/12/31 14:05:21;;;;;;;5.12;0.60;;;8.20;99.90;;;;;;7359253;32;20158;-58
2023/12/31 14:09:24;;;;;;;3.60;0.52;;;8.20;99.90;;;;;;7357681;32;20622;-58
2023/12/31 14:13:26;;;;;;;2.67;0.55;;;8.20;99.90;;;;;;7362338;32;20335;-58
2023/12/31 14:17:27;;;;;;;1.55;0.35;;;8.20;99.90;;;;;;7360435;32;20168;-58
2023/12/31 14:21:30;;;;;;;5.28;2.40;;;8.20;99.90;;;;;;7355933;32;20154;-58
2023/12/31 14:25:31;;;;;;;3.97;0.50;;;8.10;99.90;;;;;;7360983;32;20757;-58
2023/12/31 14:29:33;;;;;;;1.98;0.40;;;8.10;99.90;;;;;;7356845;32;20114;-57
2023/12/31 14:33:37;;;;;;;5.57;2.17;;;8.00;99.90;;;;;;7363346;32;21880;-58
2023/12/31 14:37:39;;;;;;;7.62;2.60;;;7.90;99.90;;;;;;7359803;32;20107;-58
2023/12/31 14:41:41;;;;;;;2.90;0.70;;;7.90;99.90;;;;;;7352431;32;20704;-58
2023/12/31 14:45:43;;;;;;;6.00;0.85;;;7.90;99.90;;;;;;7359543;32;20596;-58
2023/12/31 14:49:45;;;;;;;6.10;0.90;;;7.90;99.90;;;;;;7366758;32;20204;-58
2023/12/31 14:53:47;;;;;;;1.98;0.62;;;7.70;99.90;;;;;;7364290;32;20267;-57
2023/12/31 14:57:49;;;;;;;3.78;0.70;;;7.80;99.90;;;;;;7355436;32;20512;-59
2023/12/31 15:01:51;;;;;;;5.80;0.60;;;7.80;99.90;;;;;;7361473;32;20136;-59
2023/12/31 15:05:52;;;;;;;5.12;0.93;;;7.80;99.90;;;;;;7365977;32;20200;-58
2023/12/31 15:09:54;;;;;;;3.40;0.70;;;7.80;99.90;;;;;;7365119;32;20226;-58
2023/12/31 15:13:56;;;;;;;4.12;0.80;;;7.80;99.90;;;;;;7362021;32;20118;-59
2023/12/31 15:17:58;;;;;;;3.42;0.68;;;7.80;99.90;;;;;;7356896;32;20222;-57
2023/12/31 15:22:00;;;;;;;4.25;0.70;;;7.80;99.90;;;;;;7363434;32;20131;-57
2023/12/31 15:26:03;;;;;;;4.62;0.70;;;7.70;99.90;;;;;;7365142;32;20665;-58
2023/12/31 15:30:05;;;;;;;3.92;0.82;;;7.70;99.90;;;;;;7356121;32;20102;-58
2023/12/31 15:34:07;;;;;;;4.37;0.90;;;7.60;99.90;;;;;;7365623;32;20227;-57
2023/12/31 15:38:09;;;;;;;4.68;0.57;;;7.70;99.90;;;;;;7370887;32;20119;-58
2023/12/31 15:42:11;;;;;;;4.30;0.80;;;7.70;99.90;;;;;;7361918;32;20715;-58
2023/12/31 15:46:13;;;;;;;6.00;1.00;;;7.80;99.90;;;;;;7360946;32;20779;-57
2023/12/31 15:50:15;;;;;;;8.00;1.10;;;7.80;99.90;;;;;;7364026;32;20174;-57
2023/12/31 15:54:17;;;;;;;8.00;1.17;;;7.80;99.90;;;;;;7358394;32;20467;-57
2023/12/31 15:58:18;;;;;;;6.00;1.15;;;8.00;99.90;;;;;;7360060;32;20182;-57
2023/12/31 16:02:20;;;;;;;10.57;1.87;;;8.20;99.90;;;;;;7359250;32;20226;-54
2023/12/31 16:06:22;;;;;;;8.18;1.77;;;8.30;99.90;;;;;;7370540;32;20535;-54
2023/12/31 16:10:24;;;;;;;10.85;1.75;;;8.40;99.90;;;;;;7351415;32;20171;-56
2023/12/31 16:14:26;;;;;;;12.10;1.58;;;8.50;99.90;;;;;;7364386;32;20163;-55
2023/12/31 16:18:27;;;;;;;14.52;2.00;;;8.60;99.90;;;;;;7365684;32;20194;-55
2023/12/31 16:22:29;;;;;;;10.05;1.30;;;8.50;99.90;;;;;;7367089;32;20242;-57
2023/12/31 16:26:33;;;;;;;8.43;1.50;;;8.60;99.90;;;;;;7355754;32;21380;-55
2023/12/31 16:30:34;;;;;;;11.07;1.52;;;8.70;99.90;;;;;;7365595;32;20160;-55
2023/12/31 16:34:38;;;;;;;9.23;2.28;;;8.70;99.90;;;;;;7360320;32;20207;-56
2023/12/31 16:38:40;;;;;;;10.68;1.40;;;8.70;99.90;;;;;;7361810;32;20493;-55
2023/12/31 16:42:43;;;;;;;8.93;1.23;;;8.60;99.90;;;;;;7364983;32;20129;-55
2023/12/31 16:46:44;;;;;;;10.25;1.75;;;8.70;99.90;;;;;;7362425;32;20111;-56
2023/12/31 16:50:47;;;;;;;8.57;1.50;;;8.70;99.90;;;;;;7363933;32;20209;-56
2023/12/31 16:54:49;;;;;;;7.28;1.30;;;8.70;99.90;;;;;;7358216;32;21121;-58
2023/12/31 16:58:51;;;;;;;5.97;1.62;;;8.70;99.90;;;;;;7356181;32;20115;-56
2023/12/31 17:02:53;;;;;;;7.95;1.48;;;8.80;99.90;;;;;;7361597;32;20258;-56
2023/12/31 17:06:54;;;;;;;10.98;1.83;;;8.70;99.90;;;;;;7359913;32;20098;-56
2023/12/31 17:10:56;;;;;;;6.80;1.40;;;8.80;99.90;;;;;;7366707;32;20131;-56
2023/12/31 17:14:58;;;;;;;9.82;1.62;;;8.90;99.90;;;;;;7355955;32;20111;-57
2023/12/31 17:19:02;;;;;;;9.48;1.80;;;8.90;99.90;;;;;;7354901;32;20107;-55
2023/12/31 17:23:04;;;;;;;9.93;1.83;;;9.00;99.90;;;;;;7358651;32;20240;-56
2023/12/31 17:27:07;;;;;;;8.55;1.60;;;9.00;99.90;;;;;;7361015;32;20126;-56
2023/12/31 17:31:08;;;;;;;11.70;1.62;;;9.00;99.90;;;;;;7360374;32;20214;-57
2023/12/31 17:35:10;;;;;;;7.80;1.90;;;9.00;99.90;;;;;;7362638;32;20108;-56
2023/12/31 17:39:12;;;;;;;10.45;2.20;;;9.00;99.90;;;;;;7359949;32;20747;-55
2023/12/31 17:43:14;;;;;;;10.85;1.87;;;9.00;99.90;;;;;;7356926;32;20269;-55
2023/12/31 17:47:16;;;;;;;11.10;1.70;;;9.00;99.90;;;;;;7356121;32;20161;-56
2023/12/31 17:51:18;;;;;;;11.05;1.70;;;9.00;99.90;;;;;;7360079;32;20187;-57
2023/12/31 17:55:19;;;;;;;11.77;1.50;;;8.90;99.90;;;;;;7364501;32;20178;-56
2023/12/31 17:59:22;;;;;;;11.20;1.80;;;9.00;99.90;;;;;;7354504;32;20337;-58
2023/12/31 18:03:24;;;;;;;11.35;2.15;;;8.90;99.90;;;;;;7355015;32;20142;-56
2023/12/31 18:07:25;;;;;;;7.93;1.70;;;9.00;99.90;;;;;;7356342;32;20209;-57
2023/12/31 18:11:27;;;;;;;14.02;2.05;;;9.00;99.90;;;;;;7357511;32;20119;-58
2023/12/31 18:15:29;;;;;;;9.18;1.58;;;8.90;99.90;;;;;;7361659;32;20642;-59
2023/12/31 18:19:31;;;;;;;9.85;2.08;;;8.90;99.90;;;;;;7364296;32;20131;-59
2023/12/31 18:23:32;;;;;;;9.52;1.65;;;8.90;99.90;;;;;;7360604;32;20108;-58
2023/12/31 18:27:34;;;;;;;12.23;1.83;;;8.90;99.90;;;;;;7362678;32;20167;-57
2023/12/31 18:31:36;;;;;;;8.63;1.90;;;8.90;99.90;;;;;;7360602;32;20257;-57
2023/12/31 18:35:38;;;;;;;13.15;2.05;;;8.90;99.90;;;;;;7356149;32;20254;-56
2023/12/31 18:39:40;;;;;;;7.53;1.10;;;9.00;99.90;;;;;;7358924;32;20257;-55
2023/12/31 18:43:42;;;;;;;11.18;1.60;;;9.00;99.90;;;;;;7355854;32;20211;-58
2023/12/31 18:47:43;;;;;;;12.32;1.73;;;9.00;99.90;;;;;;7366511;32;20124;-56
2023/12/31 18:51:45;;;;;;;8.43;1.50;;;8.90;99.90;;;;;;7356517;32;20106;-56
2023/12/31 18:55:47;;;;;;;12.73;1.83;;;8.90;99.90;;;;;;7355323;32;20297;-55
2023/12/31 18:59:49;;;;;;;12.65;2.00;;;8.90;99.90;;;;;;7362600;32;20091;-56
2023/12/31 19:03:51;;;;;;;9.10;1.98;;;8.90;99.90;;;;;;7360778;32;20151;-56
2023/12/31 19:07:52;;;;;;;8.48;1.80;;;8.90;99.90;;;;;;7364830;32;20245;-56
2023/12/31 19:11:54;;;;;;;7.87;1.80;;;8.90;99.90;;;;;;7365037;32;20878;-56
2023/12/31 19:15:56;;;;;;;6.90;1.80;;;8.90;99.90;;;;;;7357947;32;20099;-55
2023/12/31 19:19:57;;;;;;;8.93;1.83;;;9.00;99.90;;;;;;7363019;32;20364;-56
2023/12/31 19:23:59;;;;;;;6.60;1.55;;;8.90;99.90;;;;;;7361242;32;20294;-56
2023/12/31 19:28:01;;;;;;;12.25;1.73;;;8.90;99.90;;;;;;7363594;32;20111;-55
2023/12/31 19:32:04;;;;;;;6.12;1.30;;;8.90;99.90;;;;;;7362055;32;20170;-55
2023/12/31 19:36:06;;;;;;;6.20;1.70;;;8.80;99.90;;;;;;7364506;32;20107;-55
2023/12/31 19:40:08;;;;;;;7.55;1.65;;;8.80;99.90;;;;;;7366353;32;20217;-55
2023/12/31 19:44:10;;;;;;;8.05;1.40;;;8.90;99.90;;;;;;7362248;32;20115;-55
2023/12/31 19:48:32;;;;;;;5.82;1.20;;;8.80;99.90;;;;;;7354861;32;20191;-56
2023/12/31 19:52:34;;;;;;;5.68;1.15;;;8.80;99.90;;;;;;7365076;32;20595;-55
2023/12/31 19:56:37;;;;;;;8.07;1.37;;;8.80;99.90;;;;;;7365423;32;20115;-55
2023/12/31 20:00:38;;;;;;;10.85;1.77;;;8.80;99.90;;;;;;7366845;32;20857;-55
2023/12/31 20:04:40;;;;;;;7.95;1.50;;;8.80;99.90;;;;;;7360431;32;20190;-54
2023/12/31 20:08:42;;;;;;;5.75;1.45;;;8.80;99.90;;;;;;7358274;32;20260;-57
2023/12/31 20:12:44;;;;;;;11.23;1.85;;;8.80;99.90;;;;;;7364319;32;20625;-57
2023/12/31 20:16:46;;;;;;;6.50;2.15;;;8.80;99.90;;;;;;7359545;32;23298;-55
2023/12/31 20:20:48;;;;;;;8.77;2.00;;;8.60;99.90;;;;;;7357409;32;20534;-64
2023/12/31 20:24:49;;;;;;;5.87;1.50;;;8.50;99.90;;;;;;7363074;32;20483;-65
2023/12/31 20:28:51;;;;;;;6.05;1.30;;;8.90;99.90;;;;;;7362462;32;20226;-65
2023/12/31 20:32:53;;;;;;;7.22;1.55;;;9.10;99.90;;;;;;7363102;32;20317;-56
2023/12/31 20:36:55;;;;;;;7.93;1.62;;;8.80;99.90;;;;;;7364504;32;20138;-56
2023/12/31 20:40:56;;;;;;;8.30;1.67;;;8.60;99.90;;;;;;7360308;32;20837;-56
2023/12/31 20:45:00;;;;;;;4.55;1.25;;;8.50;99.90;;;;;;7364586;32;20182;-55
2023/12/31 20:49:02;;;;;;;8.35;1.87;;;8.30;99.90;;;;;;7362786;32;20104;-55
2023/12/31 20:53:05;;;;;;;8.82;2.33;;;8.30;99.90;;;;;;7360525;32;20233;-55
2023/12/31 20:57:07;;;;;;;6.90;1.80;;;8.30;99.90;;;;;;7358006;32;20096;-56
2023/12/31 21:01:09;;;;;;;6.37;1.58;;;8.20;99.90;;;;;;7360462;32;20898;-55
2023/12/31 21:05:11;;;;;;;11.45;2.33;;;8.10;99.90;;;;;;7370597;32;20139;-56
2023/12/31 21:09:13;;;;;;;9.32;2.55;;;8.00;99.90;;;;;;7346251;32;20594;-55
2023/12/31 21:13:15;;;;;;;8.80;1.65;;;7.80;99.90;;;;;;7359766;32;20115;-57
2023/12/31 21:17:16;;;;;;;6.12;1.60;;;7.80;99.90;;;;;;7363592;32;20171;-56